Time;durP1;ratioP1;P1;durP2;ratioP2;P2;SDS_P1;SDS_P2;PMS_P1;PMS_P2;Temp;Humidity;BMP_temperature;BMP_pressure;BME280_temperature;BME280_humidity;BME280_pressure;Samples;Min_cycle;Max_cycle;Signal;HPM_P1;HPM_P2
2023/02/19 00:00:02;;;;;;;4.30;3.97;;;11.90;99.90;;;;;;5028339;28;20802;-81
2023/02/19 00:02:29;;;;;;;3.57;3.27;;;11.90;99.90;;;;;;5012114;28;20553;-81
2023/02/19 00:04:55;;;;;;;3.93;3.53;;;11.90;99.90;;;;;;5010770;28;20492;-81
2023/02/19 00:07:25;;;;;;;4.00;3.70;;;11.80;99.90;;;;;;5010360;28;20483;-82
2023/02/19 00:09:52;;;;;;;4.70;4.23;;;11.80;99.90;;;;;;5005990;28;20465;-80
2023/02/19 00:12:19;;;;;;;3.80;3.43;;;11.80;99.90;;;;;;5021310;28;20613;-81
2023/02/19 00:14:49;;;;;;;3.97;3.63;;;11.80;99.90;;;;;;5008034;28;20450;-81
2023/02/19 00:17:19;;;;;;;4.20;3.90;;;11.80;99.90;;;;;;5008801;28;20449;-81
2023/02/19 00:19:45;;;;;;;3.70;3.40;;;11.80;99.90;;;;;;5001230;28;20450;-80
2023/02/19 00:22:12;;;;;;;4.33;3.93;;;11.80;99.90;;;;;;5010053;28;20487;-81
2023/02/19 00:24:39;;;;;;;4.27;3.60;;;11.80;99.90;;;;;;5013107;28;20453;-81
2023/02/19 00:27:06;;;;;;;4.07;3.27;;;11.80;99.90;;;;;;5004687;28;20443;-81
2023/02/19 00:29:33;;;;;;;3.77;3.47;;;11.80;99.90;;;;;;5010706;28;20465;-81
2023/02/19 00:32:03;;;;;;;3.60;2.97;;;11.80;99.90;;;;;;5014392;28;20463;-82
2023/02/19 00:34:30;;;;;;;4.13;3.10;;;11.80;99.90;;;;;;5015395;28;20447;-81
2023/02/19 00:36:57;;;;;;;5.43;2.97;;;11.80;99.90;;;;;;5019256;28;20450;-81
2023/02/19 00:39:23;;;;;;;2.67;2.47;;;11.70;99.90;;;;;;5035330;28;20446;-81
2023/02/19 00:41:52;;;;;;;2.43;2.23;;;11.80;99.90;;;;;;5015219;28;20442;-80
2023/02/19 00:44:19;;;;;;;2.67;2.47;;;11.80;99.90;;;;;;5009106;28;20457;-82
2023/02/19 00:46:47;;;;;;;3.60;3.30;;;11.80;99.90;;;;;;5011387;28;20561;-81
2023/02/19 00:49:23;;;;;;;3.13;2.83;;;11.90;99.90;;;;;;5019083;28;20481;-82
2023/02/19 00:51:54;;;;;;;3.63;3.33;;;11.90;99.90;;;;;;5017504;28;20473;-82
2023/02/19 00:54:23;;;;;;;3.73;3.43;;;11.80;99.90;;;;;;5033140;28;20996;-82
2023/02/19 00:56:53;;;;;;;3.20;2.93;;;11.80;99.90;;;;;;5018800;28;20447;-82
2023/02/19 00:59:27;;;;;;;4.30;3.90;;;11.80;99.90;;;;;;5023434;28;20458;-82
2023/02/19 01:01:56;;;;;;;3.90;3.60;;;11.80;99.90;;;;;;5021309;28;20519;-81
2023/02/19 01:04:25;;;;;;;4.60;4.20;;;11.90;99.90;;;;;;5013619;28;20452;-81
2023/02/19 01:06:55;;;;;;;4.10;3.80;;;12.10;99.90;;;;;;5016541;28;20451;-82
2023/02/19 01:09:22;;;;;;;4.10;3.80;;;12.00;99.90;;;;;;5019727;28;20443;-82
2023/02/19 01:11:51;;;;;;;3.87;3.50;;;11.90;99.90;;;;;;5025103;28;20492;-80
2023/02/19 01:14:19;;;;;;;4.77;3.47;;;11.90;99.90;;;;;;5021763;28;20478;-82
2023/02/19 01:16:50;;;;;;;5.40;3.00;;;11.90;99.90;;;;;;5025266;28;20464;-81
2023/02/19 01:19:20;;;;;;;5.33;4.77;;;11.90;99.90;;;;;;5016821;28;20454;-81
2023/02/19 01:21:52;;;;;;;3.47;3.17;;;11.80;99.90;;;;;;5025803;28;20859;-82
2023/02/19 01:24:23;;;;;;;4.57;4.27;;;11.80;99.90;;;;;;5024751;28;20905;-81
2023/02/19 01:26:53;;;;;;;3.20;2.87;;;11.80;99.90;;;;;;5022995;28;20465;-80
2023/02/19 01:29:21;;;;;;;3.70;3.37;;;11.80;99.90;;;;;;5019421;28;20462;-83
2023/02/19 01:31:55;;;;;;;4.17;3.77;;;12.00;99.90;;;;;;5029352;28;20454;-82
2023/02/19 01:34:25;;;;;;;5.00;4.40;;;11.90;99.90;;;;;;5014278;28;20581;-82
2023/02/19 01:36:53;;;;;;;4.23;3.87;;;11.90;99.90;;;;;;5022928;28;20494;-80
2023/02/19 01:39:24;;;;;;;3.43;3.13;;;11.80;99.90;;;;;;5034000;28;20453;-81
2023/02/19 01:41:57;;;;;;;3.50;3.20;;;11.80;99.90;;;;;;5032149;28;20453;-80
2023/02/19 01:44:27;;;;;;;4.07;3.77;;;11.80;99.90;;;;;;5021398;28;20446;-80
2023/02/19 01:46:57;;;;;;;4.23;3.93;;;11.80;99.90;;;;;;5021550;28;20523;-81
2023/02/19 01:49:31;;;;;;;3.93;3.63;;;11.80;99.90;;;;;;5033430;28;20529;-80
2023/02/19 01:52:35;;;;;;;4.50;4.10;;;11.80;99.90;;;;;;5026939;28;20501;-80
2023/02/19 01:55:06;;;;;;;4.03;3.63;;;11.80;99.90;;;;;;5016177;28;20456;-79
2023/02/19 01:57:39;;;;;;;4.70;3.70;;;11.80;99.90;;;;;;5034517;28;20449;-81
2023/02/19 02:00:15;;;;;;;4.47;4.00;;;11.80;99.90;;;;;;5029385;28;20451;-80
2023/02/19 02:02:47;;;;;;;4.77;3.67;;;11.80;99.90;;;;;;5011654;28;20479;-81
2023/02/19 02:05:25;;;;;;;8.80;4.00;;;11.80;99.90;;;;;;5012627;28;20477;-80
2023/02/19 02:10:37;;;;;;;4.60;4.20;;;11.80;99.90;;;;;;5012218;28;20512;-81
2023/02/19 02:13:04;;;;;;;4.70;4.30;;;11.80;99.90;;;;;;5013837;28;20497;-80
2023/02/19 02:15:48;;;;;;;4.93;3.50;;;11.80;99.90;;;;;;5009695;28;20466;-81
2023/02/19 02:18:45;;;;;;;5.97;3.97;;;11.80;99.90;;;;;;5007541;28;20465;-81
2023/02/19 02:21:18;;;;;;;4.20;3.90;;;11.90;99.90;;;;;;5007199;28;20463;-82
2023/02/19 02:24:19;;;;;;;4.83;4.37;;;11.90;99.90;;;;;;5012387;28;20552;-81
2023/02/19 02:27:00;;;;;;;4.00;3.60;;;11.90;99.90;;;;;;5005921;28;20512;-81
2023/02/19 02:30:08;;;;;;;4.73;4.33;;;11.80;99.90;;;;;;5014690;28;20477;-82
2023/02/19 02:33:16;;;;;;;4.70;4.13;;;11.90;99.90;;;;;;5015459;28;20565;-82
2023/02/19 02:36:05;;;;;;;4.83;4.20;;;11.90;99.90;;;;;;5017019;28;20443;-80
2023/02/19 02:38:48;;;;;;;4.90;4.30;;;11.80;99.90;;;;;;5027821;28;20818;-80
2023/02/19 02:41:32;;;;;;;6.50;4.90;;;11.80;99.90;;;;;;5017892;28;21095;-80
2023/02/19 02:44:04;;;;;;;4.63;4.23;;;11.80;99.90;;;;;;5012972;28;20473;-80
2023/02/19 02:46:41;;;;;;;4.90;4.27;;;11.80;99.90;;;;;;5015743;28;20496;-81
2023/02/19 02:49:20;;;;;;;5.20;3.73;;;11.80;99.90;;;;;;5020337;28;20454;-80
2023/02/19 02:55:01;;;;;;;4.37;3.40;;;11.80;99.90;;;;;;5017578;28;20549;-80
2023/02/19 02:55:06;;;;;;;5.50;3.70;;;11.80;99.90;;;;;;5020916;28;20481;-80
2023/02/19 02:57:49;;;;;;;4.10;3.60;;;11.80;99.90;;;;;;5022328;28;20451;-80
2023/02/19 03:00:17;;;;;;;4.77;3.63;;;11.70;99.90;;;;;;5030780;28;20500;-80
2023/02/19 03:02:47;;;;;;;5.13;3.73;;;11.80;99.90;;;;;;5005411;28;20550;-80
2023/02/19 03:08:24;;;;;;;3.20;3.00;;;11.80;99.90;;;;;;5014086;28;20458;-81
2023/02/19 03:20:41;;;;;;;6.90;5.00;;;11.70;99.90;;;;;;5005635;28;20447;-83
2023/02/19 03:26:20;;;;;;;6.70;4.60;;;11.80;99.90;;;;;;5020539;28;20459;-81
2023/02/19 03:29:33;;;;;;;5.60;4.20;;;11.80;99.90;;;;;;5025410;28;20533;-82
2023/02/19 03:31:43;;;;;;;6.80;4.60;;;11.70;99.90;;;;;;5016627;28;20447;-81
2023/02/19 03:34:19;;;;;;;5.00;4.47;;;11.70;99.90;;;;;;5009789;28;21096;-81
2023/02/19 03:36:55;;;;;;;6.30;4.80;;;11.70;99.90;;;;;;5011059;28;20439;-81
2023/02/19 03:39:23;;;;;;;6.37;5.50;;;11.70;99.90;;;;;;5004542;28;20470;-81
2023/02/19 03:42:29;;;;;;;6.87;5.00;;;11.70;99.90;;;;;;5008904;28;20450;-82
2023/02/19 03:45:11;;;;;;;5.90;5.00;;;11.70;99.90;;;;;;5008742;28;20454;-81
2023/02/19 03:48:05;;;;;;;6.17;5.57;;;11.70;99.90;;;;;;5004454;28;20472;-83
2023/02/19 03:51:02;;;;;;;12.43;5.47;;;11.70;99.90;;;;;;5011485;28;20454;-81
2023/02/19 03:54:01;;;;;;;7.53;5.67;;;11.70;99.90;;;;;;5003360;28;20491;-82
2023/02/19 03:56:51;;;;;;;7.40;5.93;;;11.70;99.90;;;;;;5007615;28;20454;-82
2023/02/19 03:59:29;;;;;;;7.07;6.00;;;11.70;99.90;;;;;;5008501;28;20463;-81
2023/02/19 04:02:17;;;;;;;11.30;5.80;;;11.70;99.90;;;;;;5003611;28;20546;-82
2023/02/19 04:05:14;;;;;;;6.00;5.40;;;11.70;99.90;;;;;;5019429;28;20450;-82
2023/02/19 04:07:47;;;;;;;7.40;6.13;;;11.70;99.90;;;;;;5006966;28;21076;-81
2023/02/19 04:10:17;;;;;;;7.10;6.30;;;11.70;99.90;;;;;;5005388;28;20497;-80
2023/02/19 04:12:55;;;;;;;11.10;6.30;;;11.70;99.90;;;;;;5010749;28;20557;-80
2023/02/19 04:15:27;;;;;;;10.23;6.10;;;11.70;99.90;;;;;;5013501;28;20485;-81
2023/02/19 04:18:01;;;;;;;10.40;6.63;;;11.70;99.90;;;;;;5008042;28;20550;-81
2023/02/19 04:20:33;;;;;;;10.37;6.47;;;11.70;99.90;;;;;;5007833;28;20464;-80
2023/02/19 04:23:01;;;;;;;7.90;6.60;;;11.70;99.90;;;;;;5005304;28;21022;-81
2023/02/19 04:25:29;;;;;;;10.20;6.53;;;11.70;99.90;;;;;;5013230;28;20546;-81
2023/02/19 04:27:57;;;;;;;11.40;7.87;;;11.60;99.90;;;;;;5013036;28;20446;-80
2023/02/19 04:30:24;;;;;;;7.90;7.00;;;11.70;99.90;;;;;;5010354;28;20528;-80
2023/02/19 04:32:51;;;;;;;8.00;6.57;;;11.60;99.90;;;;;;5013062;28;20992;-81
2023/02/19 04:35:21;;;;;;;8.93;6.40;;;11.60;99.90;;;;;;5014882;28;20488;-80
2023/02/19 04:37:48;;;;;;;7.73;6.87;;;11.60;99.90;;;;;;4991504;28;20490;-81
2023/02/19 04:40:28;;;;;;;11.33;7.40;;;11.60;99.90;;;;;;5001561;28;20459;-81
2023/02/19 04:43:05;;;;;;;12.63;7.43;;;11.60;99.90;;;;;;5007179;28;20893;-81
2023/02/19 04:45:45;;;;;;;9.90;7.13;;;11.60;99.90;;;;;;5011732;28;20484;-81
2023/02/19 04:48:27;;;;;;;9.33;7.87;;;11.60;99.90;;;;;;5009973;28;20493;-81
2023/02/19 04:51:27;;;;;;;9.63;7.20;;;11.60;99.90;;;;;;5005897;28;20465;-82
2023/02/19 04:54:34;;;;;;;11.40;6.77;;;11.60;99.90;;;;;;5006769;28;20556;-81
2023/02/19 04:57:22;;;;;;;10.17;8.27;;;11.60;99.90;;;;;;5007688;28;20454;-81
2023/02/19 05:00:15;;;;;;;11.43;7.50;;;11.50;99.90;;;;;;4947508;28;20464;-80
2023/02/19 05:02:58;;;;;;;9.20;7.47;;;11.50;99.90;;;;;;4952885;28;20483;-80
2023/02/19 05:05:38;;;;;;;7.60;6.70;;;11.50;99.90;;;;;;4957772;28;21787;-80
2023/02/19 05:08:21;;;;;;;10.03;7.17;;;11.40;99.90;;;;;;4984790;28;20467;-81
2023/02/19 05:11:00;;;;;;;9.47;7.67;;;11.40;99.90;;;;;;4992864;28;20431;-81
2023/02/19 05:13:40;;;;;;;9.37;7.97;;;11.40;99.90;;;;;;4991251;28;20484;-79
2023/02/19 05:16:19;;;;;;;11.70;6.90;;;11.40;99.90;;;;;;4986472;28;20476;-81
2023/02/19 05:18:54;;;;;;;7.97;7.17;;;11.40;99.90;;;;;;4995278;28;20468;-80
2023/02/19 05:21:39;;;;;;;12.13;7.80;;;11.40;99.90;;;;;;4993223;28;20458;-79
2023/02/19 05:24:16;;;;;;;13.03;7.63;;;11.40;99.90;;;;;;4996752;28;20532;-80
2023/02/19 05:26:50;;;;;;;10.13;7.20;;;11.40;99.90;;;;;;4994466;28;20456;-80
2023/02/19 05:29:39;;;;;;;11.47;7.83;;;11.40;99.90;;;;;;4994627;28;20459;-80
2023/02/19 05:32:25;;;;;;;9.87;8.00;;;11.40;99.90;;;;;;5039957;28;20453;-80
2023/02/19 05:35:18;;;;;;;10.70;7.17;;;11.40;99.90;;;;;;5042403;28;20521;-79
2023/02/19 05:38:04;;;;;;;8.37;7.20;;;11.30;99.90;;;;;;5018941;28;20461;-80
2023/02/19 05:40:54;;;;;;;10.73;7.47;;;11.40;99.90;;;;;;5041043;28;20446;-81
2023/02/19 05:43:25;;;;;;;11.47;7.80;;;11.30;99.90;;;;;;5031555;28;20475;-80
2023/02/19 05:46:25;;;;;;;9.10;7.70;;;11.30;99.90;;;;;;5022147;28;20454;-83
2023/02/19 05:49:26;;;;;;;10.20;8.23;;;11.40;99.90;;;;;;5019445;28;20511;-81
2023/02/19 05:51:56;;;;;;;8.80;6.97;;;11.30;99.90;;;;;;5028844;28;20521;-80
2023/02/19 05:54:31;;;;;;;10.40;8.37;;;11.30;99.90;;;;;;5020182;28;20498;-81
2023/02/19 05:57:12;;;;;;;11.80;8.27;;;11.30;99.90;;;;;;5017718;28;21169;-80
2023/02/19 05:59:59;;;;;;;11.90;8.63;;;11.30;99.90;;;;;;5014030;28;20458;-80
2023/02/19 06:02:28;;;;;;;11.23;8.23;;;11.30;99.90;;;;;;5013790;28;20482;-82
2023/02/19 06:08:26;;;;;;;12.93;8.93;;;11.30;99.90;;;;;;5012193;28;20471;-83
2023/02/19 06:11:05;;;;;;;10.20;8.83;;;11.20;99.90;;;;;;5017091;28;20454;-80
2023/02/19 06:13:45;;;;;;;12.20;9.13;;;11.20;99.90;;;;;;5013662;28;20576;-81
2023/02/19 06:16:33;;;;;;;12.73;8.83;;;11.30;99.90;;;;;;5028858;28;20462;-80
2023/02/19 06:19:20;;;;;;;12.37;10.00;;;11.20;99.90;;;;;;5019492;28;20462;-80
2023/02/19 06:22:04;;;;;;;13.37;9.37;;;11.30;99.90;;;;;;5009590;28;20541;-80
2023/02/19 06:25:22;;;;;;;9.93;8.13;;;11.20;99.90;;;;;;5009776;28;20443;-79
2023/02/19 06:28:18;;;;;;;10.40;8.90;;;11.20;99.90;;;;;;5011620;28;20454;-81
2023/02/19 06:31:04;;;;;;;13.00;9.13;;;11.20;99.90;;;;;;5009563;28;20480;-80
2023/02/19 06:33:49;;;;;;;11.10;8.60;;;11.20;99.90;;;;;;5009232;28;20486;-80
2023/02/19 06:36:34;;;;;;;14.97;8.00;;;11.20;99.90;;;;;;5014592;28;20454;-81
2023/02/19 06:39:20;;;;;;;11.83;9.13;;;11.10;99.90;;;;;;5012002;28;20496;-80
2023/02/19 06:42:24;;;;;;;9.60;7.77;;;11.10;99.90;;;;;;5016588;28;20474;-82
2023/02/19 06:45:05;;;;;;;11.97;7.50;;;11.10;99.90;;;;;;5015852;28;20458;-81
2023/02/19 06:48:04;;;;;;;12.27;7.93;;;11.10;99.90;;;;;;5004941;28;20538;-81
2023/02/19 06:51:12;;;;;;;13.33;7.90;;;11.10;99.90;;;;;;5011484;28;20454;-82
2023/02/19 06:53:46;;;;;;;15.30;10.73;;;11.10;99.90;;;;;;5016668;28;20502;-81
2023/02/19 06:56:40;;;;;;;11.73;7.60;;;11.10;99.90;;;;;;5019173;28;20462;-81
2023/02/19 06:59:24;;;;;;;9.47;7.87;;;11.10;99.90;;;;;;5013568;28;20549;-81
2023/02/19 07:02:22;;;;;;;11.93;8.17;;;11.10;99.90;;;;;;5017783;28;20586;-82
2023/02/19 07:05:28;;;;;;;12.30;7.50;;;11.10;99.90;;;;;;5008849;28;20816;-82
2023/02/19 07:08:16;;;;;;;;;;;;;;;;;;;;;
2023/02/19 07:11:04;;;;;;;10.70;6.50;;;11.10;99.90;;;;;;5013046;28;20526;-82
2023/02/19 07:13:51;;;;;;;10.90;7.50;;;11.10;99.90;;;;;;5009045;28;20979;-81
2023/02/19 07:16:51;;;;;;;12.80;7.00;;;11.10;99.90;;;;;;5015003;28;20636;-82
2023/02/19 07:19:34;;;;;;;11.00;6.30;;;11.10;99.90;;;;;;5017521;28;20481;-83
2023/02/19 07:22:12;;;;;;;11.50;6.50;;;11.10;99.90;;;;;;5012875;28;20560;-80
2023/02/19 07:24:42;;;;;;;11.03;6.10;;;11.10;99.90;;;;;;5019252;28;20474;-81
2023/02/19 07:27:42;;;;;;;10.63;6.83;;;11.10;99.90;;;;;;5021142;28;20530;-82
2023/02/19 07:30:45;;;;;;;8.60;6.30;;;11.00;99.90;;;;;;5017263;28;20455;-80
2023/02/19 07:33:26;;;;;;;6.90;6.20;;;11.10;99.90;;;;;;4995638;28;20490;-80
2023/02/19 07:36:42;;;;;;;9.23;6.20;;;11.10;99.90;;;;;;5019001;28;20517;-80
2023/02/19 07:42:16;;;;;;;13.33;7.50;;;11.10;99.90;;;;;;5009871;28;20474;-80
2023/02/19 07:44:46;;;;;;;8.80;6.30;;;11.00;99.90;;;;;;5017035;28;20473;-82
2023/02/19 07:47:30;;;;;;;13.73;7.17;;;11.00;99.90;;;;;;5011093;28;20465;-81
2023/02/19 07:50:07;;;;;;;11.57;7.10;;;11.00;99.90;;;;;;5016403;28;20458;-82
2023/02/19 07:52:45;;;;;;;9.80;7.07;;;11.00;99.90;;;;;;5010009;28;21116;-81
2023/02/19 07:55:33;;;;;;;10.37;5.93;;;11.00;99.90;;;;;;5011476;28;20482;-81
2023/02/19 07:58:11;;;;;;;10.47;6.37;;;11.00;99.90;;;;;;5006745;28;21544;-80
2023/02/19 08:00:48;;;;;;;9.37;6.83;;;11.00;99.90;;;;;;5009589;28;20497;-80
2023/02/19 08:03:22;;;;;;;8.40;6.97;;;11.10;99.90;;;;;;5009376;28;20548;-80
2023/02/19 08:06:09;;;;;;;13.03;7.37;;;11.10;99.90;;;;;;5008810;28;20494;-81
2023/02/19 08:08:50;;;;;;;11.93;7.60;;;11.20;99.90;;;;;;5016549;28;20454;-82
2023/02/19 08:14:12;;;;;;;12.73;7.43;;;11.20;99.90;;;;;;5017647;28;20539;-80
2023/02/19 08:16:56;;;;;;;13.80;7.70;;;11.20;99.90;;;;;;5020447;28;20473;-80
2023/02/19 08:22:41;;;;;;;6.83;6.13;;;11.20;99.90;;;;;;5025242;28;20489;-82
2023/02/19 08:25:12;;;;;;;8.83;6.50;;;11.20;99.90;;;;;;5021183;28;20496;-81
2023/02/19 08:27:49;;;;;;;13.30;7.27;;;11.20;99.90;;;;;;5021436;28;20451;-82
2023/02/19 08:30:23;;;;;;;10.23;7.13;;;11.20;99.90;;;;;;5022502;28;20470;-82
2023/02/19 08:33:19;;;;;;;11.93;6.53;;;11.20;99.90;;;;;;5022318;28;20474;-81
2023/02/19 08:35:49;;;;;;;12.53;7.20;;;11.20;99.90;;;;;;5013644;28;21071;-81
2023/02/19 08:38:24;;;;;;;10.73;6.80;;;11.20;99.90;;;;;;5034229;28;20801;-82
2023/02/19 08:41:16;;;;;;;10.70;6.33;;;11.20;99.90;;;;;;5016512;28;20461;-83
2023/02/19 08:43:52;;;;;;;9.30;6.07;;;11.20;99.90;;;;;;5020925;28;20952;-80
2023/02/19 08:46:28;;;;;;;8.97;5.70;;;11.20;99.90;;;;;;5016919;28;20512;-80
2023/02/19 08:51:38;;;;;;;11.70;5.40;;;11.20;99.90;;;;;;5129011;23;20494;-79
2023/02/19 08:54:15;;;;;;;11.83;5.80;;;11.20;99.90;;;;;;5006016;28;20459;-81
2023/02/19 08:56:53;;;;;;;11.80;6.47;;;11.20;99.90;;;;;;4998047;28;20541;-81
2023/02/19 09:02:56;;;;;;;11.67;6.00;;;11.30;99.90;;;;;;4994424;28;20484;-84
2023/02/19 09:08:10;;;;;;;10.27;6.47;;;11.40;99.90;;;;;;5046167;23;20458;-82
2023/02/19 09:11:35;;;;;;;10.27;5.63;;;11.60;99.90;;;;;;5021642;28;20465;-82
2023/02/19 09:17:10;;;;;;;9.03;5.40;;;11.80;99.90;;;;;;5381381;23;20564;-83
2023/02/19 09:19:53;;;;;;;7.63;5.07;;;11.70;99.90;;;;;;5024975;28;20444;-81
2023/02/19 09:30:56;;;;;;;6.87;4.63;;;11.70;99.90;;;;;;5015292;23;20580;-81
2023/02/19 09:36:50;;;;;;;;;;;;;;;;;;;;;
2023/02/19 09:39:51;;;;;;;9.03;4.27;;;11.60;99.90;;;;;;4977684;28;20470;-80
2023/02/19 09:46:25;;;;;;;6.37;3.90;;;11.60;99.90;;;;;;4964689;28;20460;-82
2023/02/19 09:49:50;;;;;;;10.60;4.30;;;11.60;99.90;;;;;;5153631;23;20513;-81
2023/02/19 09:52:23;;;;;;;5.87;3.90;;;11.50;99.90;;;;;;4991157;28;20483;-79
2023/02/19 09:55:14;;;;;;;6.40;3.93;;;11.50;99.90;;;;;;5022226;28;20483;-81
2023/02/19 10:01:12;;;;;;;5.93;3.50;;;11.50;99.90;;;;;;5032560;23;20495;-82
2023/02/19 10:04:00;;;;;;;4.43;3.40;;;11.50;99.90;;;;;;5025625;28;20481;-82
2023/02/19 10:06:36;;;;;;;9.03;4.00;;;11.50;99.90;;;;;;5029661;28;20456;-81
2023/02/19 10:09:30;;;;;;;6.30;3.90;;;11.50;99.90;;;;;;5031493;28;20454;-81
2023/02/19 10:12:02;;;;;;;6.93;3.70;;;11.60;99.90;;;;;;5007216;28;20467;-82
2023/02/19 10:14:45;;;;;;;9.97;3.93;;;11.50;99.90;;;;;;5019151;28;20551;-80
2023/02/19 10:17:34;;;;;;;7.93;4.10;;;11.50;99.90;;;;;;5018058;28;20455;-82
2023/02/19 10:20:40;;;;;;;5.77;4.33;;;11.50;99.90;;;;;;5023994;28;20490;-82
2023/02/19 10:23:34;;;;;;;9.87;4.60;;;11.60;99.90;;;;;;5050696;23;20498;-82
2023/02/19 10:26:53;;;;;;;9.10;4.80;;;11.60;99.90;;;;;;4992447;28;20442;-82
2023/02/19 10:29:30;;;;;;;8.80;4.23;;;11.70;99.90;;;;;;5012711;28;20458;-82
2023/02/19 10:32:29;;;;;;;8.20;4.33;;;11.60;99.90;;;;;;4990323;28;20471;-83
2023/02/19 10:35:14;;;;;;;8.07;4.40;;;11.60;99.90;;;;;;4953006;29;20488;-81
2023/02/19 10:37:53;;;;;;;7.70;4.00;;;11.60;99.90;;;;;;4992236;28;20428;-82
2023/02/19 10:40:31;;;;;;;6.73;4.20;;;11.60;99.90;;;;;;4980431;28;20463;-81
2023/02/19 10:43:34;;;;;;;7.53;3.80;;;11.60;99.90;;;;;;4973670;28;20477;-83
2023/02/19 10:46:51;;;;;;;8.07;4.27;;;11.50;99.90;;;;;;4959566;28;20489;-82
2023/02/19 10:49:48;;;;;;;7.73;4.20;;;11.50;99.90;;;;;;5081529;23;20496;-82
2023/02/19 10:55:40;;;;;;;11.17;5.43;;;11.40;99.90;;;;;;1178859;26;20485;-81
2023/02/19 10:59:03;;;;;;;7.23;5.63;;;11.50;99.90;;;;;;5021365;28;20466;-81
2023/02/19 11:02:33;;;;;;;5.83;5.03;;;11.50;99.90;;;;;;5023643;28;20454;-82
2023/02/19 11:09:58;;;;;;;;;;;;;;;;;;;;;
2023/02/19 11:12:59;;;;;;;8.40;5.37;;;11.60;99.90;;;;;;4997450;28;20538;-79
2023/02/19 11:27:36;;;;;;;11.90;5.63;;;11.80;99.90;;;;;;5034396;22;20573;-82
2023/02/19 11:30:49;;;;;;;7.17;5.20;;;11.80;99.90;;;;;;5426694;23;21104;-81
2023/02/19 11:37:13;;;;;;;6.60;5.67;;;11.90;99.90;;;;;;5320411;23;20505;-81
2023/02/19 11:40:16;;;;;;;7.30;5.70;;;12.00;99.90;;;;;;5012376;28;20448;-81
2023/02/19 11:45:53;;;;;;;9.73;5.40;;;12.20;99.90;;;;;;5268123;23;20550;-81
2023/02/19 11:48:36;;;;;;;9.33;5.40;;;12.20;99.90;;;;;;5015387;28;20450;-82
2023/02/19 11:51:11;;;;;;;7.83;5.30;;;12.10;99.90;;;;;;5012633;28;20545;-83
2023/02/19 11:54:37;;;;;;;7.83;5.53;;;12.00;99.90;;;;;;5011706;28;20470;-84
2023/02/19 11:57:47;;;;;;;8.83;6.23;;;11.90;99.90;;;;;;5028518;28;20450;-81
2023/02/19 12:01:12;;;;;;;11.00;6.60;;;11.80;99.90;;;;;;5012303;28;20543;-83
2023/02/19 12:04:32;;;;;;;7.03;5.13;;;11.90;99.90;;;;;;5000956;28;20475;-81
2023/02/19 12:08:02;;;;;;;7.40;5.30;;;12.00;99.90;;;;;;5011277;28;20463;-81
2023/02/19 12:11:32;;;;;;;;;;;;;;;;;;;;;
2023/02/19 12:14:43;;;;;;;5.50;5.00;;;12.10;99.90;;;;;;5013204;28;20472;-81
2023/02/19 12:18:07;;;;;;;6.87;5.30;;;12.20;99.90;;;;;;5017460;28;20473;-82
2023/02/19 12:21:20;;;;;;;7.67;4.93;;;12.30;99.90;;;;;;5024439;28;20461;-82
2023/02/19 12:28:28;;;;;;;;;;;;;;;;;;;;;
2023/02/19 12:43:53;;;;;;;4.40;3.17;;;13.10;99.90;;;;;;4983446;28;20461;-82
2023/02/19 12:47:00;;;;;;;3.40;3.10;;;13.20;99.90;;;;;;4994095;28;20457;-83
2023/02/19 12:50:45;;;;;;;4.53;2.87;;;13.20;99.90;;;;;;4992399;28;20491;-82
2023/02/19 12:53:46;;;;;;;6.43;3.57;;;13.30;99.90;;;;;;4997713;28;20883;-81
2023/02/19 12:57:09;;;;;;;7.30;2.77;;;13.30;99.90;;;;;;5002685;28;20582;-82
2023/02/19 13:00:01;;;;;;;8.93;3.07;;;13.20;99.90;;;;;;5006003;28;20897;-82
2023/02/19 13:03:01;;;;;;;5.20;3.43;;;13.00;99.90;;;;;;4994162;28;20486;-80
2023/02/19 13:05:41;;;;;;;4.13;3.63;;;13.00;99.90;;;;;;4991245;28;20487;-80
2023/02/19 13:08:39;;;;;;;5.80;4.10;;;12.90;99.90;;;;;;5009980;28;20456;-82
2023/02/19 13:12:00;;;;;;;7.30;6.00;;;12.80;99.90;;;;;;5006499;28;20455;-79
2023/02/19 13:14:44;;;;;;;7.23;4.10;;;12.60;99.90;;;;;;5030057;28;20533;-80
2023/02/19 13:17:28;;;;;;;3.77;3.30;;;12.50;99.90;;;;;;5020413;28;20574;-81
2023/02/19 13:20:26;;;;;;;8.27;4.83;;;12.40;99.90;;;;;;5025500;28;20865;-81
2023/02/19 13:26:20;;;;;;;9.23;6.13;;;12.30;99.90;;;;;;5000089;28;20466;-83
2023/02/19 13:29:16;;;;;;;7.17;5.07;;;12.20;99.90;;;;;;4997981;28;20455;-83
2023/02/19 13:32:03;;;;;;;5.73;3.40;;;12.20;99.90;;;;;;5007851;28;20455;-82
2023/02/19 13:34:39;;;;;;;3.30;3.00;;;12.20;99.90;;;;;;5011415;28;20459;-81
2023/02/19 13:37:07;;;;;;;3.37;2.90;;;12.00;99.90;;;;;;4995852;28;20482;-80
2023/02/19 13:39:44;;;;;;;5.10;2.77;;;12.00;99.90;;;;;;5003194;28;20455;-82
2023/02/19 13:42:21;;;;;;;2.70;2.30;;;12.00;99.90;;;;;;5028291;28;20568;-81
2023/02/19 13:44:49;;;;;;;4.60;3.20;;;12.00;99.90;;;;;;5023427;28;20500;-79
2023/02/19 13:47:52;;;;;;;2.50;2.30;;;12.00;99.90;;;;;;5018093;28;20454;-81
2023/02/19 13:50:25;;;;;;;2.73;2.40;;;12.00;99.90;;;;;;4999179;28;20459;-81
2023/02/19 13:52:54;;;;;;;2.90;2.10;;;11.90;99.90;;;;;;5014893;28;20474;-80
2023/02/19 13:55:43;;;;;;;2.50;2.10;;;11.90;99.90;;;;;;5017595;28;20878;-82
2023/02/19 13:58:31;;;;;;;4.47;3.80;;;11.90;99.90;;;;;;4993599;28;20901;-82
2023/02/19 14:01:06;;;;;;;3.00;2.60;;;11.90;99.90;;;;;;4997963;28;20826;-81
2023/02/19 14:03:45;;;;;;;3.13;2.83;;;11.80;99.90;;;;;;5007397;28;20480;-82
2023/02/19 14:06:12;;;;;;;4.13;3.20;;;11.90;99.90;;;;;;4998031;28;20523;-82
2023/02/19 14:08:56;;;;;;;5.70;3.67;;;11.90;99.90;;;;;;5005596;28;20462;-83
2023/02/19 14:11:41;;;;;;;3.50;3.20;;;11.80;99.90;;;;;;5007898;28;20524;-82
2023/02/19 14:14:33;;;;;;;3.40;3.20;;;11.90;99.90;;;;;;5019387;28;20469;-82
2023/02/19 14:17:04;;;;;;;3.80;3.10;;;11.90;99.90;;;;;;5022128;28;20506;-81
2023/02/19 14:19:53;;;;;;;4.43;3.90;;;11.90;99.90;;;;;;4992386;28;20456;-82
2023/02/19 14:22:45;;;;;;;4.07;3.40;;;11.90;99.90;;;;;;4995065;28;20481;-81
2023/02/19 14:25:32;;;;;;;4.40;4.00;;;11.80;99.90;;;;;;4997681;28;20489;-82
2023/02/19 14:28:08;;;;;;;9.00;5.03;;;11.90;99.90;;;;;;4997054;28;20479;-81
2023/02/19 14:30:50;;;;;;;4.70;3.80;;;11.90;99.90;;;;;;4995479;28;20477;-82
2023/02/19 14:33:21;;;;;;;5.30;4.47;;;11.90;99.90;;;;;;5014603;28;20476;-82
2023/02/19 14:35:53;;;;;;;7.50;4.63;;;11.90;99.90;;;;;;5002529;28;20845;-83
2023/02/19 14:38:24;;;;;;;5.97;5.10;;;12.00;99.90;;;;;;5002381;28;20797;-82
2023/02/19 14:40:53;;;;;;;5.47;4.60;;;12.00;99.90;;;;;;5021994;28;20934;-82
2023/02/19 14:43:23;;;;;;;6.80;4.97;;;12.10;99.90;;;;;;4997374;28;20815;-83
2023/02/19 14:46:11;;;;;;;7.27;5.10;;;12.00;99.90;;;;;;5000659;28;20473;-81
2023/02/19 14:48:52;;;;;;;6.10;5.50;;;12.00;99.90;;;;;;5001659;28;20494;-82
2023/02/19 14:51:34;;;;;;;5.93;5.07;;;12.00;99.90;;;;;;5002191;28;20521;-80
2023/02/19 14:54:18;;;;;;;7.20;5.60;;;12.00;99.90;;;;;;5012327;28;20490;-82
2023/02/19 14:57:02;;;;;;;8.57;5.80;;;12.00;99.90;;;;;;5017378;28;20516;-83
2023/02/19 14:59:29;;;;;;;6.40;5.00;;;11.90;99.90;;;;;;5016960;28;20461;-82
2023/02/19 15:02:22;;;;;;;7.60;5.77;;;11.80;99.90;;;;;;4993550;28;20463;-81
2023/02/19 15:04:55;;;;;;;7.93;6.33;;;11.90;99.90;;;;;;5012295;28;20542;-80
2023/02/19 15:07:33;;;;;;;6.67;5.77;;;11.90;99.90;;;;;;4995750;28;20455;-82
2023/02/19 15:10:04;;;;;;;8.20;5.30;;;11.90;99.90;;;;;;5015139;28;20450;-80
2023/02/19 15:12:49;;;;;;;7.60;6.10;;;11.80;99.90;;;;;;5030805;28;20467;-80
2023/02/19 15:15:32;;;;;;;8.50;5.83;;;11.80;99.90;;;;;;5011331;28;20458;-80
2023/02/19 15:18:03;;;;;;;9.33;6.70;;;11.80;99.90;;;;;;5026902;28;20451;-82
2023/02/19 15:20:38;;;;;;;9.60;6.23;;;11.80;99.90;;;;;;5021345;28;20454;-80
2023/02/19 15:26:01;;;;;;;6.70;5.73;;;11.80;99.90;;;;;;5024344;28;20456;-81
2023/02/19 15:28:45;;;;;;;9.17;7.00;;;11.80;99.90;;;;;;5019608;28;20447;-80
2023/02/19 15:31:18;;;;;;;12.00;6.97;;;11.80;99.90;;;;;;5008264;28;20451;-80
2023/02/19 15:33:51;;;;;;;12.27;6.50;;;11.70;99.90;;;;;;5010627;28;20514;-80
2023/02/19 15:36:33;;;;;;;9.43;7.60;;;11.80;99.90;;;;;;5008267;28;20517;-81
2023/02/19 15:39:04;;;;;;;9.30;7.80;;;11.70;99.90;;;;;;4998878;28;20506;-80
2023/02/19 15:41:36;;;;;;;14.10;8.03;;;11.70;99.90;;;;;;5013678;28;20892;-83
2023/02/19 15:44:28;;;;;;;10.53;7.47;;;11.70;99.90;;;;;;4995312;28;20467;-83
2023/02/19 15:47:14;;;;;;;11.20;7.80;;;11.70;99.90;;;;;;4997583;28;20451;-81
2023/02/19 15:50:10;;;;;;;8.90;7.90;;;11.70;99.90;;;;;;5001367;28;20525;-81
2023/02/19 15:52:56;;;;;;;12.47;8.50;;;11.60;99.90;;;;;;5001764;28;20546;-82
2023/02/19 15:55:38;;;;;;;10.90;8.17;;;11.70;99.90;;;;;;4987211;28;20516;-80
2023/02/19 15:58:14;;;;;;;16.43;7.70;;;11.70;99.90;;;;;;5014972;28;20538;-81
2023/02/19 16:00:53;;;;;;;9.10;6.93;;;11.70;99.90;;;;;;4998780;28;20451;-80
2023/02/19 16:03:25;;;;;;;8.10;6.70;;;11.70;99.90;;;;;;5007580;28;20506;-82